Time,TemperatureF,DewpointF,PressureIn,WindDirection,WindDirectionDegrees,WindSpeedMPH,WindSpeedGustMPH,Humidity,HourlyPrecipIn,Conditions,Clouds,dailyrainin,SoftwareType,DateUTC
2013-01-17 00:00:00,65.6,61.9,29.99,NNW,346,0.0,0.0,88,0.00,,,0.00,Wunderground PWS Mod,2013-01-17 05:00:00,
2013-01-17 00:02:00,65.6,61.9,29.99,NNW,346,0.0,0.0,88,0.00,,,0.00,Wunderground PWS Mod,2013-01-17 05:02:00,
2013-01-17 00:06:00,65.5,61.9,29.98,NNW,346,0.0,0.0,88,0.00,,,0.00,Wunderground PWS Mod,2013-01-17 05:06:00,
2013-01-17 00:12:00,65.5,61.9,29.98,NNW,346,0.0,0.0,88,0.00,,,0.00,Wunderground PWS Mod,2013-01-17 05:12:00,
2013-01-17 00:18:00,65.5,61.9,29.98,NNW,346,0.0,0.0,88,0.00,,,0.00,Wunderground PWS Mod,2013-01-17 05:18:00,
2013-01-17 00:22:00,66.0,62.7,29.98,N/A,-737280,0.0,0.0,89,0.00,,,0.00,Wunderground PWS Mod,2013-01-17 05:22:00,
2013-01-17 00:24:00,65.6,61.9,29.98,NNW,346,0.0,0.0,88,0.00,,,0.00,Wunderground PWS Mod,2013-01-17 05:24:00,
2013-01-17 00:30:00,65.6,62.3,29.98,NNW,346,0.0,0.0,89,0.00,,,0.00,Wunderground PWS Mod,2013-01-17 05:30:00,
2013-01-17 00:36:00,65.8,62.5,29.98,NNW,346,0.0,0.0,89,0.00,,,0.00,Wunderground PWS Mod,2013-01-17 05:36:00,
2013-01-17 00:42:00,66.1,62.8,29.98,NNW,346,0.0,0.0,89,0.00,,,0.00,Wunderground PWS Mod,2013-01-17 05:42:00,
2013-01-17 00:48:00,66.1,62.8,29.98,NNW,346,0.0,0.0,89,0.00,,,0.00,Wunderground PWS Mod,2013-01-17 05:48:00,
2013-01-17 00:50:00,66.9,63.2,29.98,N/A,-737280,0.0,0.0,88,0.00,,,0.00,Wunderground PWS Mod,2013-01-17 05:50:00,
2013-01-17 00:54:00,66.4,63.1,29.98,NNW,346,0.0,0.0,89,0.00,,,0.00,Wunderground PWS Mod,2013-01-17 05:54:00,
2013-01-17 01:00:00,66.8,63.1,29.98,NNW,346,0.0,0.0,88,0.00,,,0.00,Wunderground PWS Mod,2013-01-17 06:00:00,
2013-01-17 01:06:00,66.9,63.2,29.98,NNW,346,0.0,0.0,88,0.00,,,0.00,Wunderground PWS Mod,2013-01-17 06:06:00,
2013-01-17 01:12:00,67.1,63.1,29.98,NNW,346,0.0,0.0,87,0.00,,,0.00,Wunderground PWS Mod,2013-01-17 06:12:00,
2013-01-17 01:18:00,67.3,63.3,29.98,NNW,346,0.0,0.0,87,0.00,,,0.00,Wunderground PWS Mod,2013-01-17 06:18:00,
2013-01-17 01:24:00,67.4,63.4,29.98,NNW,346,0.0,0.0,87,0.00,,,0.00,Wunderground PWS Mod,2013-01-17 06:24:00,
2013-01-17 01:30:00,67.6,63.6,29.98,NNW,346,0.0,0.0,87,0.00,,,0.00,Wunderground PWS Mod,2013-01-17 06:30:00,
2013-01-17 01:36:00,67.8,63.8,29.97,NNW,346,0.0,0.0,87,0.00,,,0.00,Wunderground PWS Mod,2013-01-17 06:36:00,
2013-01-17 01:42:00,67.8,63.8,29.97,NNW,346,0.0,0.0,87,0.00,,,0.00,Wunderground PWS Mod,2013-01-17 06:42:00,
2013-01-17 01:56:00,67.8,63.8,29.97,NNW,346,0.0,0.0,87,0.00,,,0.00,Wunderground PWS Mod,2013-01-17 06:56:00,
2013-01-17 02:02:00,67.6,63.6,29.97,NNW,346,0.0,0.0,87,0.00,,,0.00,Wunderground PWS Mod,2013-01-17 07:02:00,
2013-01-17 02:04:00,67.4,63.4,29.98,N/A,-737280,0.0,0.0,87,0.00,,,0.00,Wunderground PWS Mod,2013-01-17 07:04:00,
2013-01-17 02:08:00,67.6,63.6,29.97,NNW,346,0.0,0.0,87,0.00,,,0.00,Wunderground PWS Mod,2013-01-17 07:08:00,
2013-01-17 02:14:00,67.6,63.6,29.97,NNW,346,0.0,0.0,87,0.00,,,0.00,Wunderground PWS Mod,2013-01-17 07:14:00,
2013-01-17 02:20:00,67.4,63.4,29.98,NNW,346,0.0,0.0,87,0.00,,,0.00,Wunderground PWS Mod,2013-01-17 07:20:00,
2013-01-17 02:26:00,67.4,63.7,29.98,NNW,346,0.0,0.0,88,0.00,,,0.00,Wunderground PWS Mod,2013-01-17 07:26:00,
2013-01-17 02:32:00,67.4,63.7,29.98,NNW,346,0.0,0.0,88,0.00,,,0.00,Wunderground PWS Mod,2013-01-17 07:32:00,
2013-01-17 02:38:00,67.3,63.6,29.98,NNW,346,0.0,0.0,88,0.00,,,0.00,Wunderground PWS Mod,2013-01-17 07:38:00,
2013-01-17 02:44:00,67.3,63.6,29.98,NNW,346,0.0,0.0,88,0.00,,,0.00,Wunderground PWS Mod,2013-01-17 07:44:00,
2013-01-17 02:50:00,66.9,63.2,29.98,NNW,346,0.0,0.0,88,0.00,,,0.00,Wunderground PWS Mod,2013-01-17 07:50:00,
2013-01-17 02:54:00,66.6,63.3,29.97,N/A,-737280,0.0,0.0,89,0.00,,,0.00,Wunderground PWS Mod,2013-01-17 07:54:00,
2013-01-17 02:56:00,66.9,63.2,29.98,NNW,346,0.0,0.0,88,0.00,,,0.00,Wunderground PWS Mod,2013-01-17 07:56:00,
2013-01-17 03:02:00,66.8,63.5,29.98,NNW,346,0.0,0.0,89,0.00,,,0.00,Wunderground PWS Mod,2013-01-17 08:02:00,
2013-01-17 03:08:00,66.6,63.3,29.97,NNW,346,0.0,0.0,89,0.00,,,0.00,Wunderground PWS Mod,2013-01-17 08:08:00,
2013-01-17 03:14:00,66.6,63.3,29.97,NNW,346,0.0,0.0,89,0.00,,,0.00,Wunderground PWS Mod,2013-01-17 08:14:00,
2013-01-17 03:18:00,66.1,62.8,29.98,N/A,-737280,0.0,0.0,89,0.00,,,0.00,Wunderground PWS Mod,2013-01-17 08:18:00,
2013-01-17 03:20:00,66.6,63.3,29.97,NNW,346,0.0,0.0,89,0.00,,,0.00,Wunderground PWS Mod,2013-01-17 08:20:00,
2013-01-17 03:26:00,66.4,63.1,29.97,NNW,346,0.0,0.0,89,0.00,,,0.00,Wunderground PWS Mod,2013-01-17 08:26:00,
2013-01-17 03:32:00,66.3,63.0,29.97,NNW,346,0.0,0.0,89,0.00,,,0.00,Wunderground PWS Mod,2013-01-17 08:32:00,
2013-01-17 03:38:00,66.0,62.7,29.98,NNW,346,0.0,0.0,89,0.00,,,0.00,Wunderground PWS Mod,2013-01-17 08:38:00,
2013-01-17 03:42:00,65.3,62.3,29.97,N/A,-737280,0.0,0.0,90,0.00,,,0.00,Wunderground PWS Mod,2013-01-17 08:42:00,
2013-01-17 03:44:00,65.8,62.8,29.98,NNW,346,0.0,0.0,90,0.00,,,0.00,Wunderground PWS Mod,2013-01-17 08:44:00,
2013-01-17 03:50:00,65.6,62.6,29.97,NNW,346,0.0,0.0,90,0.00,,,0.00,Wunderground PWS Mod,2013-01-17 08:50:00,
2013-01-17 03:56:00,65.3,62.3,29.97,NNW,346,0.0,0.0,90,0.00,,,0.00,Wunderground PWS Mod,2013-01-17 08:56:00,
2013-01-17 04:02:00,65.2,62.2,29.97,NNW,346,0.0,0.0,90,0.00,,,0.00,Wunderground PWS Mod,2013-01-17 09:02:00,
2013-01-17 04:06:00,64.4,61.4,29.97,N/A,-737280,0.0,0.0,90,0.00,,,0.00,Wunderground PWS Mod,2013-01-17 09:06:00,
2013-01-17 04:08:00,65.0,62.0,29.98,NNW,346,0.0,0.0,90,0.00,,,0.00,Wunderground PWS Mod,2013-01-17 09:08:00,
2013-01-17 04:14:00,64.8,61.8,29.98,NNW,346,0.0,0.0,90,0.00,,,0.00,Wunderground PWS Mod,2013-01-17 09:14:00,
2013-01-17 04:20:00,64.5,61.5,29.97,NNW,346,0.0,0.0,90,0.00,,,0.00,Wunderground PWS Mod,2013-01-17 09:20:00,
2013-01-17 04:26:00,64.3,61.3,29.97,NNW,346,0.0,0.0,90,0.00,,,0.00,Wunderground PWS Mod,2013-01-17 09:26:00,
2013-01-17 04:32:00,64.2,61.2,29.97,NNW,346,0.0,0.0,90,0.00,,,0.00,Wunderground PWS Mod,2013-01-17 09:32:00,
2013-01-17 04:38:00,64.0,61.0,29.97,NNW,346,0.0,0.0,90,0.00,,,0.00,Wunderground PWS Mod,2013-01-17 09:38:00,
2013-01-17 04:44:00,63.9,61.2,29.97,NNW,346,0.0,0.0,91,0.00,,,0.00,Wunderground PWS Mod,2013-01-17 09:44:00,
2013-01-17 04:50:00,63.7,61.0,29.97,NNW,346,0.0,0.0,91,0.00,,,0.00,Wunderground PWS Mod,2013-01-17 09:50:00,
2013-01-17 04:56:00,63.5,60.8,29.97,NNW,346,0.0,0.0,91,0.00,,,0.00,Wunderground PWS Mod,2013-01-17 09:56:00,
2013-01-17 05:02:00,63.2,60.5,29.97,NNW,346,0.0,0.0,91,0.00,,,0.00,Wunderground PWS Mod,2013-01-17 10:02:00,
2013-01-17 05:08:00,63.1,60.7,29.97,NNW,346,0.0,0.0,92,0.00,,,0.00,Wunderground PWS Mod,2013-01-17 10:08:00,
2013-01-17 05:14:00,62.9,60.5,29.97,NNW,346,0.0,0.0,92,0.00,,,0.00,Wunderground PWS Mod,2013-01-17 10:14:00,
2013-01-17 05:20:00,62.9,60.5,29.97,NNW,346,0.0,0.0,92,0.00,,,0.00,Wunderground PWS Mod,2013-01-17 10:20:00,
2013-01-17 05:26:00,62.7,60.3,29.97,NNW,346,0.0,0.0,92,0.00,,,0.00,Wunderground PWS Mod,2013-01-17 10:26:00,
2013-01-17 05:32:00,62.7,60.3,29.97,NNW,346,0.0,0.0,92,0.00,,,0.00,Wunderground PWS Mod,2013-01-17 10:32:00,
2013-01-17 05:38:00,62.6,60.2,29.97,NNW,346,0.0,0.0,92,0.00,,,0.00,Wunderground PWS Mod,2013-01-17 10:38:00,
2013-01-17 05:44:00,62.4,60.0,29.97,NNW,346,0.0,0.0,92,0.00,,,0.00,Wunderground PWS Mod,2013-01-17 10:44:00,
2013-01-17 05:50:00,62.4,60.3,29.97,NNW,346,0.0,0.0,93,0.00,,,0.00,Wunderground PWS Mod,2013-01-17 10:50:00,
2013-01-17 05:56:00,62.3,60.2,29.97,NNW,346,0.0,0.0,93,0.00,,,0.00,Wunderground PWS Mod,2013-01-17 10:56:00,
2013-01-17 06:00:00,62.0,60.0,29.98,N/A,-737280,0.0,0.0,93,0.00,,,0.00,Wunderground PWS Mod,2013-01-17 11:00:00,
2013-01-17 06:02:00,62.3,60.2,29.97,NNW,346,0.0,0.0,93,0.00,,,0.00,Wunderground PWS Mod,2013-01-17 11:02:00,
2013-01-17 06:08:00,62.1,60.1,29.98,NNW,346,0.0,0.0,93,0.00,,,0.00,Wunderground PWS Mod,2013-01-17 11:08:00,
2013-01-17 06:14:00,62.1,60.1,29.98,NNW,346,0.0,0.0,93,0.00,,,0.00,Wunderground PWS Mod,2013-01-17 11:14:00,
2013-01-17 06:20:00,62.0,60.0,29.98,NNW,346,0.0,0.0,93,0.00,,,0.00,Wunderground PWS Mod,2013-01-17 11:20:00,
2013-01-17 06:22:00,61.7,59.7,29.99,N/A,-737280,0.0,0.0,93,0.00,,,0.00,Wunderground PWS Mod,2013-01-17 11:22:00,
2013-01-17 06:26:00,62.0,60.0,29.98,NNW,346,0.0,0.0,93,0.00,,,0.00,Wunderground PWS Mod,2013-01-17 11:26:00,
2013-01-17 06:32:00,61.8,59.8,29.98,NNW,346,0.0,0.0,93,0.00,,,0.00,Wunderground PWS Mod,2013-01-17 11:32:00,
2013-01-17 06:38:00,61.8,59.8,29.99,NNW,346,0.0,0.0,93,0.00,,,0.00,Wunderground PWS Mod,2013-01-17 11:38:00,
2013-01-17 06:44:00,61.8,59.8,29.99,NNW,346,0.0,0.0,93,0.00,,,0.00,Wunderground PWS Mod,2013-01-17 11:44:00,
2013-01-17 06:50:00,61.6,59.6,29.99,NNW,346,0.0,0.0,93,0.00,,,0.00,Wunderground PWS Mod,2013-01-17 11:50:00,
2013-01-17 06:56:00,61.6,59.6,29.99,NNW,346,0.0,0.0,93,0.00,,,0.00,Wunderground PWS Mod,2013-01-17 11:56:00,
2013-01-17 06:58:00,61.6,59.6,29.99,N/A,-737280,0.0,0.0,93,0.00,,,0.00,Wunderground PWS Mod,2013-01-17 11:58:00,
2013-01-17 07:02:00,61.6,59.6,29.99,NNW,346,0.0,0.0,93,0.00,,,0.00,Wunderground PWS Mod,2013-01-17 12:02:00,
2013-01-17 07:08:00,61.6,59.6,29.99,NNW,346,0.0,0.0,93,0.00,,,0.00,Wunderground PWS Mod,2013-01-17 12:08:00,
2013-01-17 07:14:00,61.6,59.6,29.99,NNW,346,0.0,0.0,93,0.00,,,0.00,Wunderground PWS Mod,2013-01-17 12:14:00,
2013-01-17 07:20:00,61.5,59.8,30.00,NNW,346,0.0,0.0,94,0.00,,,0.00,Wunderground PWS Mod,2013-01-17 12:20:00,
2013-01-17 07:26:00,61.5,59.8,30.00,NNW,346,0.0,0.0,94,0.00,,,0.00,Wunderground PWS Mod,2013-01-17 12:26:00,
2013-01-17 07:32:00,61.5,59.8,30.00,NNW,346,0.0,0.0,94,0.00,,,0.00,Wunderground PWS Mod,2013-01-17 12:32:00,
2013-01-17 07:38:00,61.5,59.8,30.00,NNW,346,0.0,0.0,94,0.00,,,0.00,Wunderground PWS Mod,2013-01-17 12:38:00,
2013-01-17 07:42:00,61.9,60.2,30.00,N/A,-737280,0.0,0.0,94,0.00,,,0.00,Wunderground PWS Mod,2013-01-17 12:42:00,
2013-01-17 07:44:00,61.5,59.8,30.00,NNW,346,0.0,0.0,94,0.00,,,0.00,Wunderground PWS Mod,2013-01-17 12:44:00,
2013-01-17 07:50:00,61.6,59.9,30.00,NNW,346,0.0,0.0,94,0.00,,,0.00,Wunderground PWS Mod,2013-01-17 12:50:00,
2013-01-17 07:56:00,61.8,60.1,30.00,NNW,346,0.0,0.0,94,0.00,,,0.00,Wunderground PWS Mod,2013-01-17 12:56:00,
2013-01-17 08:02:00,62.0,60.3,30.00,NNW,346,0.0,0.0,94,0.00,,,0.00,Wunderground PWS Mod,2013-01-17 13:02:00,
2013-01-17 08:08:00,62.1,60.4,30.01,NNW,346,0.0,0.0,94,0.00,,,0.00,Wunderground PWS Mod,2013-01-17 13:08:00,
2013-01-17 08:14:00,62.4,60.7,30.01,NNW,346,0.0,0.0,94,0.00,,,0.00,Wunderground PWS Mod,2013-01-17 13:14:00,
2013-01-17 08:20:00,62.9,61.4,30.01,NNW,346,0.0,0.0,95,0.00,,,0.00,Wunderground PWS Mod,2013-01-17 13:20:00,
2013-01-17 08:26:00,63.5,62.0,30.01,NNW,346,0.0,0.0,95,0.00,,,0.00,Wunderground PWS Mod,2013-01-17 13:26:00,
2013-01-17 08:32:00,63.7,62.2,30.01,NNW,346,0.0,0.0,95,0.00,,,0.00,Wunderground PWS Mod,2013-01-17 13:32:00,
2013-01-17 08:38:00,64.2,62.7,30.02,NNW,346,0.0,0.0,95,0.00,,,0.00,Wunderground PWS Mod,2013-01-17 13:38:00,
2013-01-17 08:44:00,65.0,63.5,30.02,NNW,346,0.0,0.0,95,0.00,,,0.00,Wunderground PWS Mod,2013-01-17 13:44:00,
2013-01-17 08:50:00,66.1,64.6,30.02,NNW,346,0.0,0.0,95,0.00,,,0.00,Wunderground PWS Mod,2013-01-17 13:50:00,
2013-01-17 08:56:00,67.3,65.8,30.02,NNW,346,0.0,0.0,95,0.00,,,0.00,Wunderground PWS Mod,2013-01-17 13:56:00,
2013-01-17 09:02:00,68.1,66.6,30.02,NNW,346,0.0,0.0,95,0.00,,,0.00,Wunderground PWS Mod,2013-01-17 14:02:00,
2013-01-17 09:08:00,68.9,67.4,30.02,NNW,346,0.0,0.0,95,0.00,,,0.00,Wunderground PWS Mod,2013-01-17 14:08:00,
2013-01-17 09:14:00,69.6,67.8,30.02,NNW,346,0.0,0.0,94,0.00,,,0.00,Wunderground PWS Mod,2013-01-17 14:14:00,
2013-01-17 09:20:00,70.3,68.5,30.02,NNW,346,0.0,0.0,94,0.00,,,0.00,Wunderground PWS Mod,2013-01-17 14:20:00,
2013-01-17 09:24:00,72.7,70.2,30.03,N/A,-737280,0.0,0.0,92,0.00,,,0.00,Wunderground PWS Mod,2013-01-17 14:24:00,
2013-01-17 09:26:00,70.8,69.0,30.02,NNW,346,0.0,0.0,94,0.00,,,0.00,Wunderground PWS Mod,2013-01-17 14:26:00,
2013-01-17 09:32:00,71.5,69.7,30.02,NNW,346,0.0,0.0,94,0.00,,,0.00,Wunderground PWS Mod,2013-01-17 14:32:00,
2013-01-17 09:38:00,72.1,70.0,30.03,NNW,346,0.0,0.0,93,0.00,,,0.00,Wunderground PWS Mod,2013-01-17 14:38:00,
2013-01-17 09:44:00,72.8,70.3,30.03,SW,223,0.0,0.0,92,0.00,,,0.00,Wunderground PWS Mod,2013-01-17 14:44:00,
2013-01-17 09:48:00,74.4,70.3,30.02,N/A,-737280,0.0,0.0,87,0.00,,,0.00,Wunderground PWS Mod,2013-01-17 14:48:00,
2013-01-17 09:50:00,73.7,70.9,30.03,SW,221,0.0,0.0,91,0.00,,,0.00,Wunderground PWS Mod,2013-01-17 14:50:00,
2013-01-17 09:56:00,74.0,70.6,30.03,SSW,192,0.0,0.0,89,0.00,,,0.00,Wunderground PWS Mod,2013-01-17 14:56:00,
2013-01-17 10:02:00,74.2,70.4,30.03,South,179,0.0,0.0,88,0.00,,,0.00,Wunderground PWS Mod,2013-01-17 15:02:00,
2013-01-17 10:08:00,74.4,70.3,30.02,SW,215,0.0,0.0,87,0.00,,,0.00,Wunderground PWS Mod,2013-01-17 15:08:00,
2013-01-17 10:14:00,74.6,70.1,30.02,SW,215,0.0,0.0,86,0.00,,,0.00,Wunderground PWS Mod,2013-01-17 15:14:00,
2013-01-17 10:16:00,75.3,69.8,30.02,N/A,-737280,0.0,0.0,83,0.00,,,0.00,Wunderground PWS Mod,2013-01-17 15:16:00,
2013-01-17 10:20:00,74.4,69.6,30.02,SW,215,0.0,0.0,85,0.00,,,0.00,Wunderground PWS Mod,2013-01-17 15:20:00,
2013-01-17 10:26:00,74.6,69.4,30.02,SW,223,0.0,0.0,84,0.00,,,0.00,Wunderground PWS Mod,2013-01-17 15:26:00,
2013-01-17 10:32:00,75.1,69.9,30.02,SW,223,0.0,0.0,84,0.00,,,0.00,Wunderground PWS Mod,2013-01-17 15:32:00,
2013-01-17 10:38:00,76.0,70.1,30.02,SSW,200,0.0,0.0,82,0.00,,,0.00,Wunderground PWS Mod,2013-01-17 15:38:00,
2013-01-17 10:40:00,77.9,67.7,30.02,N/A,-737280,0.0,0.0,71,0.00,,,0.00,Wunderground PWS Mod,2013-01-17 15:40:00,
2013-01-17 10:44:00,76.5,69.5,30.02,SSW,196,0.0,0.0,79,0.00,,,0.00,Wunderground PWS Mod,2013-01-17 15:44:00,
2013-01-17 10:50:00,76.7,68.9,30.02,SW,217,0.0,0.0,77,0.00,,,0.00,Wunderground PWS Mod,2013-01-17 15:50:00,
2013-01-17 10:56:00,77.7,68.7,30.02,South,184,0.0,0.0,74,0.00,,,0.00,Wunderground PWS Mod,2013-01-17 15:56:00,
2013-01-17 11:02:00,77.7,68.0,30.02,SSW,201,0.0,0.0,72,0.00,,,0.00,Wunderground PWS Mod,2013-01-17 16:02:00,
2013-01-17 11:08:00,78.1,68.3,30.02,South,184,0.0,0.0,72,0.00,,,0.00,Wunderground PWS Mod,2013-01-17 16:08:00,
2013-01-17 11:14:00,78.1,68.3,30.02,SW,227,0.0,0.0,72,0.00,,,0.00,Wunderground PWS Mod,2013-01-17 16:14:00,
2013-01-17 11:20:00,79.2,68.6,30.01,SSW,199,0.0,0.0,70,0.00,,,0.00,Wunderground PWS Mod,2013-01-17 16:20:00,
2013-01-17 11:26:00,79.6,67.2,30.01,SSW,195,0.0,0.0,66,0.00,,,0.00,Wunderground PWS Mod,2013-01-17 16:26:00,
2013-01-17 11:32:00,79.6,67.7,30.01,SSW,202,0.0,0.0,67,0.00,,,0.00,Wunderground PWS Mod,2013-01-17 16:32:00,
2013-01-17 11:38:00,79.2,67.7,30.00,WNW,284,0.0,0.0,68,0.00,,,0.00,Wunderground PWS Mod,2013-01-17 16:38:00,
2013-01-17 11:44:00,78.5,67.1,30.00,South,186,0.0,0.0,68,0.00,,,0.00,Wunderground PWS Mod,2013-01-17 16:44:00,
2013-01-17 11:50:00,78.3,68.1,30.00,SSW,194,0.0,0.0,71,0.00,,,0.00,Wunderground PWS Mod,2013-01-17 16:50:00,
2013-01-17 11:56:00,78.5,68.3,30.00,WSW,237,0.0,0.0,71,0.00,,,0.00,Wunderground PWS Mod,2013-01-17 16:56:00,
2013-01-17 12:02:00,78.1,67.5,30.00,South,182,0.0,0.0,70,0.00,,,0.00,Wunderground PWS Mod,2013-01-17 17:02:00,
2013-01-17 12:08:00,78.6,66.7,30.00,WNW,285,0.0,0.0,67,0.00,,,0.00,Wunderground PWS Mod,2013-01-17 17:08:00,
2013-01-17 12:14:00,79.0,67.1,30.00,SW,220,0.0,0.0,67,0.00,,,0.00,Wunderground PWS Mod,2013-01-17 17:14:00,
2013-01-17 12:20:00,79.4,66.6,29.99,SSW,205,0.0,0.0,65,0.00,,,0.00,Wunderground PWS Mod,2013-01-17 17:20:00,
2013-01-17 12:26:00,79.8,66.1,29.99,SSW,205,0.0,0.0,63,0.00,,,0.00,Wunderground PWS Mod,2013-01-17 17:26:00,
2013-01-17 12:32:00,79.8,66.1,29.99,SSW,197,0.0,0.0,63,0.00,,,0.00,Wunderground PWS Mod,2013-01-17 17:32:00,
2013-01-17 12:38:00,79.0,65.8,29.98,SSW,205,0.0,0.0,64,0.00,,,0.00,Wunderground PWS Mod,2013-01-17 17:38:00,
2013-01-17 12:40:00,80.1,65.9,29.97,N/A,-737280,0.0,0.0,62,0.00,,,0.00,Wunderground PWS Mod,2013-01-17 17:40:00,
2013-01-17 12:44:00,79.2,66.0,29.98,WSW,238,0.0,0.0,64,0.00,,,0.00,Wunderground PWS Mod,2013-01-17 17:44:00,
2013-01-17 12:50:00,79.6,65.9,29.97,SSW,206,0.0,0.0,63,0.00,,,0.00,Wunderground PWS Mod,2013-01-17 17:50:00,
2013-01-17 12:56:00,79.9,66.2,29.97,SSW,209,0.0,0.0,63,0.00,,,0.00,Wunderground PWS Mod,2013-01-17 17:56:00,
2013-01-17 13:02:00,80.1,65.9,29.97,SSW,192,0.0,0.0,62,0.00,,,0.00,Wunderground PWS Mod,2013-01-17 18:02:00,
2013-01-17 13:08:00,79.9,65.7,29.97,SSW,213,0.0,0.0,62,0.00,,,0.00,Wunderground PWS Mod,2013-01-17 18:08:00,
2013-01-17 13:10:00,79.1,65.0,29.96,N/A,-737280,0.0,0.0,62,0.00,,,0.00,Wunderground PWS Mod,2013-01-17 18:10:00,
2013-01-17 13:14:00,79.9,64.8,29.97,SSW,192,0.0,0.0,60,0.00,,,0.00,Wunderground PWS Mod,2013-01-17 18:14:00,
2013-01-17 13:20:00,79.4,64.8,29.96,South,170,0.0,0.0,61,0.00,,,0.00,Wunderground PWS Mod,2013-01-17 18:20:00,
2013-01-17 13:26:00,79.2,65.5,29.96,SSW,200,0.0,0.0,63,0.00,,,0.00,Wunderground PWS Mod,2013-01-17 18:26:00,
2013-01-17 13:32:00,79.0,65.3,29.96,South,171,0.0,0.0,63,0.00,,,0.00,Wunderground PWS Mod,2013-01-17 18:32:00,
2013-01-17 13:38:00,79.2,65.1,29.95,WNW,296,0.0,0.0,62,0.00,,,0.00,Wunderground PWS Mod,2013-01-17 18:38:00,
2013-01-17 13:44:00,79.6,66.3,29.95,SW,215,0.0,0.0,64,0.00,,,0.00,Wunderground PWS Mod,2013-01-17 18:44:00,
2013-01-17 13:50:00,80.1,65.9,29.95,SSW,199,0.0,0.0,62,0.00,,,0.00,Wunderground PWS Mod,2013-01-17 18:50:00,
2013-01-17 13:56:00,79.8,65.6,29.95,SW,235,0.0,0.0,62,0.00,,,0.00,Wunderground PWS Mod,2013-01-17 18:56:00,
2013-01-17 14:02:00,79.8,65.6,29.95,SW,230,0.0,0.0,62,0.00,,,0.00,Wunderground PWS Mod,2013-01-17 19:02:00,
2013-01-17 14:06:00,79.4,67.9,29.94,N/A,-737280,0.0,0.0,68,0.00,,,0.00,Wunderground PWS Mod,2013-01-17 19:06:00,
2013-01-17 14:08:00,79.9,66.2,29.94,SW,232,0.0,0.0,63,0.00,,,0.00,Wunderground PWS Mod,2013-01-17 19:08:00,
2013-01-17 14:14:00,79.8,67.0,29.94,SSE,155,0.0,0.0,65,0.00,,,0.00,Wunderground PWS Mod,2013-01-17 19:14:00,
2013-01-17 14:20:00,79.6,67.7,29.94,WNW,286,0.0,0.0,67,0.00,,,0.00,Wunderground PWS Mod,2013-01-17 19:20:00,
2013-01-17 14:26:00,79.4,67.9,29.94,SW,232,0.0,0.0,68,0.00,,,0.00,Wunderground PWS Mod,2013-01-17 19:26:00,
2013-01-17 14:30:00,77.4,67.7,29.95,N/A,-737280,0.0,0.0,72,0.00,,,0.00,Wunderground PWS Mod,2013-01-17 19:30:00,
2013-01-17 14:32:00,79.0,67.5,29.94,WSW,240,0.0,0.0,68,0.00,,,0.00,Wunderground PWS Mod,2013-01-17 19:32:00,
2013-01-17 14:38:00,78.8,68.2,29.94,SSW,197,0.0,0.0,70,0.00,,,0.00,Wunderground PWS Mod,2013-01-17 19:38:00,
2013-01-17 14:44:00,78.3,67.7,29.94,NW,321,0.0,0.0,70,0.00,,,0.00,Wunderground PWS Mod,2013-01-17 19:44:00,
2013-01-17 14:50:00,77.0,67.3,29.95,ENE,64,0.0,0.0,72,0.00,,,0.00,Wunderground PWS Mod,2013-01-17 19:50:00,
2013-01-17 14:52:00,74.8,66.7,29.95,N/A,-737280,0.0,0.0,76,0.00,,,0.00,Wunderground PWS Mod,2013-01-17 19:52:00,
2013-01-17 14:56:00,76.1,67.6,29.95,West,281,0.0,0.0,75,0.00,,,0.00,Wunderground PWS Mod,2013-01-17 19:56:00,
2013-01-17 15:02:00,75.6,67.5,29.95,West,259,0.0,0.0,76,0.00,,,0.00,Wunderground PWS Mod,2013-01-17 20:02:00,
2013-01-17 15:08:00,74.9,66.8,29.95,WNW,300,0.0,0.0,76,0.00,,,0.00,Wunderground PWS Mod,2013-01-17 20:08:00,
2013-01-17 15:14:00,74.4,66.3,29.95,NW,305,0.0,0.0,76,0.00,,,0.00,Wunderground PWS Mod,2013-01-17 20:14:00,
2013-01-17 15:20:00,73.7,66.0,29.96,NW,322,0.0,0.0,77,0.00,,,0.00,Wunderground PWS Mod,2013-01-17 20:20:00,
2013-01-17 15:26:00,73.2,65.6,29.96,West,265,0.0,0.0,77,0.00,,,0.00,Wunderground PWS Mod,2013-01-17 20:26:00,
2013-01-17 15:32:00,73.0,65.0,29.96,WNW,298,0.0,0.0,76,0.00,,,0.00,Wunderground PWS Mod,2013-01-17 20:32:00,
2013-01-17 15:38:00,72.7,65.1,29.96,NW,308,0.0,0.0,77,0.00,,,0.00,Wunderground PWS Mod,2013-01-17 20:38:00,
2013-01-17 15:40:00,71.3,64.1,29.97,N/A,-737280,0.0,0.0,78,0.00,,,0.00,Wunderground PWS Mod,2013-01-17 20:40:00,
2013-01-17 15:44:00,72.3,64.7,29.96,NW,308,0.0,0.0,77,0.00,,,0.00,Wunderground PWS Mod,2013-01-17 20:44:00,
2013-01-17 15:50:00,72.0,64.4,29.97,NW,318,0.0,0.0,77,0.00,,,0.00,Wunderground PWS Mod,2013-01-17 20:50:00,
2013-01-17 15:56:00,71.5,64.3,29.97,SW,226,0.0,0.0,78,0.00,,,0.00,Wunderground PWS Mod,2013-01-17 20:56:00,
2013-01-17 16:02:00,71.1,64.3,29.97,NW,305,0.0,0.0,79,0.00,,,0.00,Wunderground PWS Mod,2013-01-17 21:02:00,
2013-01-17 16:06:00,70.0,63.2,29.98,N/A,-737280,0.0,0.0,79,0.00,,,0.00,Wunderground PWS Mod,2013-01-17 21:06:00,
2013-01-17 16:08:00,70.8,64.0,29.97,NW,313,0.0,0.0,79,0.00,,,0.00,Wunderground PWS Mod,2013-01-17 21:08:00,
2013-01-17 16:14:00,70.4,63.6,29.97,West,281,0.0,0.0,79,0.00,,,0.00,Wunderground PWS Mod,2013-01-17 21:14:00,
2013-01-17 16:20:00,70.1,63.3,29.98,NW,322,0.0,0.0,79,0.00,,,0.00,Wunderground PWS Mod,2013-01-17 21:20:00,
2013-01-17 16:26:00,69.9,63.1,29.98,WNW,302,0.0,0.0,79,0.00,,,0.00,Wunderground PWS Mod,2013-01-17 21:26:00,
2013-01-17 16:32:00,69.8,63.0,29.98,North,10,0.0,0.0,79,0.00,,,0.00,Wunderground PWS Mod,2013-01-17 21:32:00,
2013-01-17 16:36:00,67.9,61.1,30.00,N/A,-737280,0.0,0.0,79,0.00,,,0.00,Wunderground PWS Mod,2013-01-17 21:36:00,
2013-01-17 16:38:00,69.3,62.5,29.98,NW,304,0.0,0.0,79,0.00,,,0.00,Wunderground PWS Mod,2013-01-17 21:38:00,
2013-01-17 16:44:00,68.8,62.0,29.98,NW,308,0.0,0.0,79,0.00,,,0.00,Wunderground PWS Mod,2013-01-17 21:44:00,
2013-01-17 16:50:00,68.3,61.5,30.00,NW,309,0.0,0.0,79,0.00,,,0.00,Wunderground PWS Mod,2013-01-17 21:50:00,
2013-01-17 16:56:00,67.6,60.9,30.00,WNW,302,0.0,0.0,79,0.00,,,0.00,Wunderground PWS Mod,2013-01-17 21:56:00,
2013-01-17 17:02:00,66.9,60.2,30.00,NNW,327,0.0,0.0,79,0.00,,,0.00,Wunderground PWS Mod,2013-01-17 22:02:00,
2013-01-17 17:08:00,66.6,59.9,30.00,NW,318,0.0,0.0,79,0.00,,,0.00,Wunderground PWS Mod,2013-01-17 22:08:00,
2013-01-17 17:14:00,66.1,59.7,30.00,NW,304,0.0,0.0,80,0.00,,,0.00,Wunderground PWS Mod,2013-01-17 22:14:00,
2013-01-17 17:20:00,65.8,59.5,30.02,NW,314,0.0,0.0,80,0.00,,,0.00,Wunderground PWS Mod,2013-01-17 22:20:00,
2013-01-17 17:26:00,65.3,59.0,30.02,WNW,301,0.0,0.0,80,0.00,,,0.00,Wunderground PWS Mod,2013-01-17 22:26:00,
2013-01-17 17:30:00,64.8,58.1,30.02,N/A,-737280,0.0,0.0,79,0.00,,,0.00,Wunderground PWS Mod,2013-01-17 22:30:00,
2013-01-17 17:32:00,65.2,58.9,30.02,NW,309,0.0,0.0,80,0.00,,,0.00,Wunderground PWS Mod,2013-01-17 22:32:00,
2013-01-17 17:38:00,65.0,58.7,30.02,NW,317,0.0,0.0,80,0.00,,,0.00,Wunderground PWS Mod,2013-01-17 22:38:00,
2013-01-17 17:44:00,64.8,58.1,30.02,NNW,332,0.0,0.0,79,0.00,,,0.00,Wunderground PWS Mod,2013-01-17 22:44:00,
2013-01-17 17:50:00,64.8,58.1,30.02,NW,317,0.0,0.0,79,0.00,,,0.00,Wunderground PWS Mod,2013-01-17 22:50:00,
2013-01-17 17:56:00,64.7,58.0,30.02,NW,313,0.0,0.0,79,0.00,,,0.00,Wunderground PWS Mod,2013-01-17 22:56:00,
2013-01-17 18:00:00,64.7,58.0,30.03,N/A,-737280,0.0,0.0,79,0.00,,,0.00,Wunderground PWS Mod,2013-01-17 23:00:00,
2013-01-17 18:02:00,64.7,58.0,30.02,NW,311,0.0,0.0,79,0.00,,,0.00,Wunderground PWS Mod,2013-01-17 23:02:00,
2013-01-17 18:08:00,64.7,58.0,30.03,NW,314,0.0,0.0,79,0.00,,,0.00,Wunderground PWS Mod,2013-01-17 23:08:00,
2013-01-17 18:14:00,64.7,58.0,30.03,NW,315,0.0,0.0,79,0.00,,,0.00,Wunderground PWS Mod,2013-01-17 23:14:00,
2013-01-17 18:20:00,64.7,58.0,30.03,NNE,13,0.0,0.0,79,0.00,,,0.00,Wunderground PWS Mod,2013-01-17 23:20:00,
2013-01-17 18:26:00,64.7,57.3,30.03,NW,313,0.0,0.0,77,0.00,,,0.00,Wunderground PWS Mod,2013-01-17 23:26:00,
2013-01-17 18:32:00,64.7,57.0,30.03,NW,313,0.0,0.0,76,0.00,,,0.00,Wunderground PWS Mod,2013-01-17 23:32:00,
2013-01-17 18:34:00,64.7,56.6,30.04,N/A,-737280,0.0,0.0,75,0.00,,,0.00,Wunderground PWS Mod,2013-01-17 23:34:00,
2013-01-17 18:38:00,64.7,57.0,30.04,NNW,327,0.0,0.0,76,0.00,,,0.00,Wunderground PWS Mod,2013-01-17 23:38:00,
2013-01-17 18:44:00,64.7,56.6,30.04,NNW,327,0.0,0.0,75,0.00,,,0.00,Wunderground PWS Mod,2013-01-17 23:44:00,
2013-01-17 18:50:00,64.7,56.6,30.04,NNW,336,0.0,0.0,75,0.00,,,0.00,Wunderground PWS Mod,2013-01-17 23:50:00,
2013-01-17 18:56:00,64.7,56.2,30.04,WNW,300,0.0,0.0,74,0.00,,,0.00,Wunderground PWS Mod,2013-01-17 23:56:00,
2013-01-17 19:02:00,64.7,56.2,30.04,NW,324,0.0,0.0,74,0.00,,,0.00,Wunderground PWS Mod,2013-01-18 00:02:00,
2013-01-17 19:08:00,64.7,55.8,30.05,NE,45,0.0,0.0,73,0.00,,,0.00,Wunderground PWS Mod,2013-01-18 00:08:00,
2013-01-17 19:10:00,64.5,55.3,30.05,N/A,-737280,0.0,0.0,72,0.00,,,0.00,Wunderground PWS Mod,2013-01-18 00:10:00,
2013-01-17 19:14:00,64.7,55.8,30.05,NW,315,0.0,0.0,73,0.00,,,0.00,Wunderground PWS Mod,2013-01-18 00:14:00,
2013-01-17 19:20:00,64.7,55.5,30.05,NW,321,0.0,0.0,72,0.00,,,0.00,Wunderground PWS Mod,2013-01-18 00:20:00,
2013-01-17 19:26:00,64.5,55.3,30.05,WNW,282,0.0,0.0,72,0.00,,,0.00,Wunderground PWS Mod,2013-01-18 00:26:00,
2013-01-17 19:32:00,64.5,55.3,30.05,WNW,282,0.0,0.0,72,0.00,,,0.00,Wunderground PWS Mod,2013-01-18 00:32:00,
2013-01-17 19:38:00,64.5,55.3,30.06,WNW,282,0.0,0.0,72,0.00,,,0.00,Wunderground PWS Mod,2013-01-18 00:38:00,
2013-01-17 19:44:00,64.5,55.3,30.06,WNW,283,0.0,0.0,72,0.00,,,0.00,Wunderground PWS Mod,2013-01-18 00:44:00,
2013-01-17 19:50:00,64.7,55.5,30.06,SSW,201,0.0,0.0,72,0.00,,,0.00,Wunderground PWS Mod,2013-01-18 00:50:00,
2013-01-17 19:56:00,64.5,55.3,30.06,WNW,302,0.0,0.0,72,0.00,,,0.00,Wunderground PWS Mod,2013-01-18 00:56:00,
2013-01-17 20:02:00,64.5,55.3,30.06,WNW,302,0.0,0.0,72,0.00,,,0.00,Wunderground PWS Mod,2013-01-18 01:02:00,
2013-01-17 20:08:00,64.3,55.5,30.06,WNW,303,0.0,0.0,73,0.00,,,0.00,Wunderground PWS Mod,2013-01-18 01:08:00,
2013-01-17 20:14:00,64.3,55.1,30.06,NNW,336,0.0,0.0,72,0.00,,,0.00,Wunderground PWS Mod,2013-01-18 01:14:00,
2013-01-17 20:20:00,64.3,55.1,30.06,WNW,294,0.0,0.0,72,0.00,,,0.00,Wunderground PWS Mod,2013-01-18 01:20:00,
2013-01-17 20:26:00,64.3,54.7,30.06,West,263,0.0,0.0,71,0.00,,,0.00,Wunderground PWS Mod,2013-01-18 01:26:00,
2013-01-17 20:32:00,64.3,54.7,30.06,NNW,335,0.0,0.0,71,0.00,,,0.00,Wunderground PWS Mod,2013-01-18 01:32:00,
2013-01-17 20:38:00,64.3,54.3,30.06,NNW,331,0.0,0.0,70,0.00,,,0.00,Wunderground PWS Mod,2013-01-18 01:38:00,
2013-01-17 20:40:00,64.2,53.4,30.06,N/A,-737280,0.0,0.0,68,0.00,,,0.00,Wunderground PWS Mod,2013-01-18 01:40:00,
2013-01-17 20:44:00,64.2,54.2,30.06,SSW,206,0.0,0.0,70,0.00,,,0.00,Wunderground PWS Mod,2013-01-18 01:44:00,
2013-01-17 20:50:00,64.2,53.4,30.06,WNW,302,0.0,0.0,68,0.00,,,0.00,Wunderground PWS Mod,2013-01-18 01:50:00,
2013-01-17 20:56:00,64.2,53.4,30.06,WNW,302,0.0,0.0,68,0.00,,,0.00,Wunderground PWS Mod,2013-01-18 01:56:00,
2013-01-17 21:02:00,64.2,53.0,30.06,North,351,0.0,0.0,67,0.00,,,0.00,Wunderground PWS Mod,2013-01-18 02:02:00,
2013-01-17 21:08:00,64.0,52.4,30.06,NNE,18,0.0,0.0,66,0.00,,,0.00,Wunderground PWS Mod,2013-01-18 02:08:00,
2013-01-17 21:14:00,64.0,52.0,30.06,NW,323,0.0,0.0,65,0.00,,,0.00,Wunderground PWS Mod,2013-01-18 02:14:00,
2013-01-17 21:18:00,63.5,51.5,30.06,N/A,-737280,0.0,0.0,65,0.00,,,0.00,Wunderground PWS Mod,2013-01-18 02:18:00,
2013-01-17 21:20:00,63.9,52.3,30.06,NW,316,0.0,0.0,66,0.00,,,0.00,Wunderground PWS Mod,2013-01-18 02:20:00,
2013-01-17 21:26:00,63.7,51.7,30.06,NW,316,0.0,0.0,65,0.00,,,0.00,Wunderground PWS Mod,2013-01-18 02:26:00,
2013-01-17 21:32:00,63.5,51.5,30.06,WNW,286,0.0,0.0,65,0.00,,,0.00,Wunderground PWS Mod,2013-01-18 02:32:00,
2013-01-17 21:38:00,63.5,51.9,30.06,WNW,286,0.0,0.0,66,0.00,,,0.00,Wunderground PWS Mod,2013-01-18 02:38:00,
2013-01-17 21:44:00,63.4,51.8,30.06,NW,322,0.0,0.0,66,0.00,,,0.00,Wunderground PWS Mod,2013-01-18 02:44:00,
2013-01-17 21:50:00,63.2,51.6,30.06,South,171,0.0,0.0,66,0.00,,,0.00,Wunderground PWS Mod,2013-01-18 02:50:00,
2013-01-17 21:56:00,63.1,52.0,30.06,NNW,339,0.0,0.0,67,0.00,,,0.00,Wunderground PWS Mod,2013-01-18 02:56:00,
2013-01-17 22:02:00,63.1,52.0,30.06,North,349,0.0,0.0,67,0.00,,,0.00,Wunderground PWS Mod,2013-01-18 03:02:00,
2013-01-17 22:08:00,62.9,51.8,30.06,NNW,342,0.0,0.0,67,0.00,,,0.00,Wunderground PWS Mod,2013-01-18 03:08:00,
2013-01-17 22:14:00,62.7,51.6,30.06,NNW,342,0.0,0.0,67,0.00,,,0.00,Wunderground PWS Mod,2013-01-18 03:14:00,
2013-01-17 22:20:00,62.4,51.3,30.07,NW,324,0.0,0.0,67,0.00,,,0.00,Wunderground PWS Mod,2013-01-18 03:20:00,
2013-01-17 22:22:00,61.8,51.5,30.07,N/A,-737280,0.0,0.0,69,0.00,,,0.00,Wunderground PWS Mod,2013-01-18 03:22:00,
2013-01-17 22:26:00,62.3,51.6,30.07,NW,325,0.0,0.0,68,0.00,,,0.00,Wunderground PWS Mod,2013-01-18 03:26:00,
2013-01-17 22:32:00,62.0,51.3,30.07,NW,321,0.0,0.0,68,0.00,,,0.00,Wunderground PWS Mod,2013-01-18 03:32:00,
2013-01-17 22:38:00,61.8,51.1,30.07,North,360,0.0,0.0,68,0.00,,,0.00,Wunderground PWS Mod,2013-01-18 03:38:00,
2013-01-17 22:44:00,61.6,51.3,30.07,NNE,27,0.0,0.0,69,0.00,,,0.00,Wunderground PWS Mod,2013-01-18 03:44:00,
2013-01-17 22:50:00,61.5,51.2,30.06,NW,324,0.0,0.0,69,0.00,,,0.00,Wunderground PWS Mod,2013-01-18 03:50:00,
2013-01-17 22:56:00,61.3,51.4,30.06,NW,324,0.0,0.0,70,0.00,,,0.00,Wunderground PWS Mod,2013-01-18 03:56:00,
2013-01-17 23:02:00,61.3,51.4,30.06,NW,325,0.0,0.0,70,0.00,,,0.00,Wunderground PWS Mod,2013-01-18 04:02:00,
2013-01-17 23:08:00,61.2,51.3,30.06,NW,325,0.0,0.0,70,0.00,,,0.00,Wunderground PWS Mod,2013-01-18 04:08:00,
2013-01-17 23:10:00,60.7,51.6,30.06,N/A,-737280,0.0,0.0,72,0.00,,,0.00,Wunderground PWS Mod,2013-01-18 04:10:00,
2013-01-17 23:14:00,61.0,51.5,30.06,NW,325,0.0,0.0,71,0.00,,,0.00,Wunderground PWS Mod,2013-01-18 04:14:00,
2013-01-17 23:20:00,60.9,51.8,30.06,NW,325,0.0,0.0,72,0.00,,,0.00,Wunderground PWS Mod,2013-01-18 04:20:00,
2013-01-17 23:26:00,60.7,51.6,30.06,NW,325,0.0,0.0,72,0.00,,,0.00,Wunderground PWS Mod,2013-01-18 04:26:00,
2013-01-17 23:32:00,60.5,51.8,30.06,NW,325,0.0,0.0,73,0.00,,,0.00,Wunderground PWS Mod,2013-01-18 04:32:00,
2013-01-17 23:38:00,60.7,51.6,30.06,WNW,300,0.0,0.0,72,0.00,,,0.00,Wunderground PWS Mod,2013-01-18 04:38:00,
2013-01-17 23:44:00,60.7,51.2,30.06,NNW,337,0.0,0.0,71,0.00,,,0.00,Wunderground PWS Mod,2013-01-18 04:44:00,
2013-01-17 23:46:00,60.7,51.2,30.07,N/A,-737280,0.0,0.0,71,0.00,,,0.00,Wunderground PWS Mod,2013-01-18 04:46:00,
2013-01-17 23:50:00,60.9,51.4,30.07,NW,313,0.0,0.0,71,0.00,,,0.00,Wunderground PWS Mod,2013-01-18 04:50:00,
2013-01-17 23:56:00,60.9,51.4,30.07,NW,316,0.0,0.0,71,0.00,,,0.00,Wunderground PWS Mod,2013-01-18 04:56:00,